Hauptseite
METAR-TAF:

METAR-TAF

Flughäfen :

Frederick Municipal Airport

Frederick, Maryland, Vereinigte Staaten

Breite: 39-25-03N, Länge: 077-22-28W, Höhe: 92 m

Beobachtung

Neuester Wetterbericht von vor 1 Stunde und 17 Minuten, um 19:47 UTC
Wind 17 kt aus Nord/Nordwest, Böen bis zu 21 kt
Temperatur 19°C
Luftfeuchtigkeit 30%
Luftdruck 1009 hPa
Sichtweite: 16.1 km
Aufgelockert bewölkt in der Höhe von 7000 ft

METAR: KFDK 031947Z 34017G21KT 10SM SCT070 19/01 A2979

Zeit: 17:04 (21:04 UTC)


TAF: fehlend

Wetterbeobachtungen und Prognosen von mehr als 4000 Flughäfen (METAR und TAF Bericht).

Die verfügbaren Stationen werden durch gelbe und rote Markierungen auf der Karte dargestellt.

Führen Sie die Maus auf sie, um den Namen der Station zu sehen.

Darauf klicken, um die Beobachtung von Wetterbeobachtungen und Prognosen zu sehen.

Um die Karte zu ändern : klicken Sie auf den grünen Tasten mit einem schwarzen Kreuz Zum Vergrößern, auf den grünen Button mit einem Gedankenstrich zu verkleinern, oder auf die grünen Pfeile für benachbarte Karten.


METAR-TAF: